createdAt,value
2018-07-21T00:00:26.229Z,4.00
2018-07-21T00:01:26.272Z,4.00
2018-07-21T00:02:26.366Z,4.00
2018-07-21T00:03:26.353Z,4.00
2018-07-21T00:04:26.405Z,4.00
2018-07-21T00:05:26.452Z,4.00
2018-07-21T00:06:26.508Z,4.00
2018-07-21T00:07:26.517Z,4.00
2018-07-21T00:08:26.593Z,4.00
2018-07-21T00:09:26.622Z,4.00
2018-07-21T00:10:26.676Z,4.00
2018-07-21T00:11:26.745Z,4.00
2018-07-21T00:12:26.767Z,4.00
2018-07-21T00:13:26.847Z,4.00
2018-07-21T00:14:26.901Z,0.00
2018-07-21T00:15:26.937Z,0.00
2018-07-21T00:16:26.991Z,0.00
2018-07-21T00:17:27.025Z,0.00
2018-07-21T00:18:27.057Z,0.00
2018-07-21T00:19:27.104Z,0.00
2018-07-21T00:20:27.148Z,0.00
2018-07-21T00:21:27.208Z,0.00
2018-07-21T00:22:27.262Z,0.00
2018-07-21T00:23:27.325Z,0.00
2018-07-21T00:24:27.327Z,0.00
2018-07-21T00:25:27.385Z,0.00
2018-07-21T00:26:27.423Z,0.00
2018-07-21T00:27:27.486Z,0.00
2018-07-21T00:28:27.521Z,0.00
2018-07-21T00:29:27.573Z,0.00
2018-07-21T00:30:27.639Z,0.00
2018-07-21T00:31:27.687Z,0.00
2018-07-21T00:32:27.714Z,0.00
2018-07-21T00:33:27.762Z,0.00
2018-07-21T00:34:27.814Z,0.00
2018-07-21T00:35:27.852Z,0.00
2018-07-21T00:36:27.910Z,0.00
2018-07-21T00:37:27.950Z,0.00
2018-07-21T00:38:27.982Z,0.00
2018-07-21T00:39:28.048Z,0.00
2018-07-21T00:40:28.096Z,0.00
2018-07-21T00:41:28.131Z,0.00
2018-07-21T00:42:28.172Z,0.00
2018-07-21T00:43:28.242Z,0.00
2018-07-21T00:44:28.283Z,0.00
2018-07-21T00:45:28.329Z,0.00
2018-07-21T00:46:28.381Z,0.00
2018-07-21T00:47:28.408Z,0.00
2018-07-21T00:48:28.443Z,0.00
2018-07-21T00:49:28.514Z,0.00
2018-07-21T00:50:28.570Z,0.00
2018-07-21T00:51:28.600Z,0.00
2018-07-21T00:52:28.650Z,0.00
2018-07-21T00:53:28.689Z,0.00
2018-07-21T00:54:28.727Z,0.00
2018-07-21T00:55:28.778Z,0.00
2018-07-21T00:56:28.851Z,0.00
2018-07-21T00:57:28.870Z,0.00
2018-07-21T00:58:28.945Z,0.00
2018-07-21T00:59:28.972Z,0.00
2018-07-21T01:00:29.004Z,0.00
2018-07-21T01:01:29.059Z,0.00
2018-07-21T01:02:29.117Z,0.00
2018-07-21T01:03:29.151Z,0.00
2018-07-21T01:04:29.189Z,0.00
2018-07-21T01:05:29.248Z,0.00
2018-07-21T01:06:29.282Z,0.00
2018-07-21T01:07:29.358Z,0.00
2018-07-21T01:08:29.355Z,0.00
2018-07-21T01:09:29.408Z,0.00
2018-07-21T01:10:29.495Z,0.00
2018-07-21T01:11:29.549Z,0.00
2018-07-21T01:12:29.567Z,0.00
2018-07-21T01:13:29.635Z,0.00
2018-07-21T01:14:29.652Z,0.00
2018-07-21T01:15:29.722Z,0.00
2018-07-21T01:16:29.736Z,0.00
2018-07-21T01:17:29.811Z,0.00
2018-07-21T01:18:29.835Z,0.00
2018-07-21T01:19:29.889Z,0.00
2018-07-21T01:20:29.945Z,0.00
2018-07-21T01:21:30.188Z,0.00
2018-07-21T01:22:30.017Z,0.00
2018-07-21T01:23:30.063Z,0.00
2018-07-21T01:24:30.149Z,0.00
2018-07-21T01:25:30.182Z,0.00
2018-07-21T01:26:30.234Z,0.00
2018-07-21T01:27:30.260Z,0.00
2018-07-21T01:28:30.292Z,0.00
2018-07-21T01:29:30.367Z,0.00
2018-07-21T01:30:30.421Z,0.00
2018-07-21T01:31:30.453Z,0.00
2018-07-21T01:32:30.488Z,0.00
2018-07-21T01:33:30.524Z,0.00
2018-07-21T01:34:30.602Z,0.00
2018-07-21T01:35:30.633Z,0.00
2018-07-21T01:36:30.675Z,0.00
2018-07-21T01:37:30.737Z,0.00
2018-07-21T01:38:30.747Z,0.00
2018-07-21T01:39:30.833Z,0.00
2018-07-21T01:40:30.872Z,0.00
2018-07-21T01:41:30.905Z,0.00
2018-07-21T01:42:31.417Z,0.00
2018-07-21T01:43:31.006Z,0.00
2018-07-21T01:44:31.049Z,0.00
2018-07-21T01:45:31.088Z,0.00
2018-07-21T01:46:31.141Z,0.00
2018-07-21T01:47:31.202Z,0.00
2018-07-21T01:48:31.244Z,0.00
2018-07-21T01:49:31.268Z,0.00
2018-07-21T01:50:31.306Z,0.00
2018-07-21T01:51:31.384Z,0.00
2018-07-21T01:52:31.405Z,0.00
2018-07-21T01:53:31.465Z,0.00
2018-07-21T01:54:31.524Z,0.00
2018-07-21T01:55:31.535Z,0.00
2018-07-21T01:56:31.576Z,0.00
2018-07-21T01:57:31.652Z,0.00
2018-07-21T01:58:31.680Z,0.00
2018-07-21T01:59:31.720Z,0.00
2018-07-21T02:00:31.791Z,0.00
2018-07-21T02:01:31.836Z,0.00
2018-07-21T02:02:31.894Z,0.00
2018-07-21T02:03:31.913Z,0.00
2018-07-21T02:04:31.980Z,0.00
2018-07-21T02:05:32.082Z,0.00
2018-07-21T02:06:32.084Z,0.00
2018-07-21T02:07:32.104Z,0.00
2018-07-21T02:08:32.159Z,0.00
2018-07-21T02:09:32.181Z,0.00
2018-07-21T02:10:32.216Z,0.00
2018-07-21T02:11:32.286Z,0.00
2018-07-21T02:12:32.377Z,0.00
2018-07-21T02:13:32.366Z,0.00
2018-07-21T02:14:32.411Z,0.00
2018-07-21T02:15:32.468Z,0.00
2018-07-21T02:16:32.512Z,0.00
2018-07-21T02:17:32.570Z,0.00
2018-07-21T02:18:32.612Z,0.00
2018-07-21T02:19:32.666Z,0.00
2018-07-21T02:20:32.708Z,0.00
2018-07-21T02:21:32.755Z,0.00
2018-07-21T02:22:32.825Z,0.00
2018-07-21T02:23:32.838Z,0.00
2018-07-21T02:24:32.969Z,0.00
2018-07-21T02:25:32.954Z,0.00
2018-07-21T02:26:32.974Z,0.00
2018-07-21T02:27:33.034Z,0.00
2018-07-21T02:28:33.073Z,0.00
2018-07-21T02:29:33.108Z,0.00
2018-07-21T02:30:33.144Z,0.00
2018-07-21T02:31:33.215Z,0.00
2018-07-21T02:32:33.272Z,0.00
2018-07-21T02:33:33.301Z,0.00
2018-07-21T02:34:33.359Z,0.00
2018-07-21T02:35:33.394Z,0.00
2018-07-21T02:36:33.461Z,0.00
2018-07-21T02:37:33.514Z,0.00
2018-07-21T02:38:33.543Z,0.00
2018-07-21T02:39:33.576Z,0.00
2018-07-21T02:40:33.617Z,0.00
2018-07-21T02:41:33.681Z,0.00
2018-07-21T02:42:33.700Z,0.00
2018-07-21T02:43:33.765Z,0.00
2018-07-21T02:44:33.800Z,0.00
2018-07-21T02:45:33.896Z,0.00
2018-07-21T02:46:33.890Z,0.00
2018-07-21T02:47:33.931Z,0.00
2018-07-21T02:48:33.979Z,0.00
2018-07-21T02:49:34.027Z,0.00
2018-07-21T02:50:34.077Z,0.00
2018-07-21T02:51:34.139Z,0.00
2018-07-21T02:52:34.182Z,0.00
2018-07-21T02:53:34.226Z,0.00
2018-07-21T02:54:34.262Z,0.00
2018-07-21T02:55:34.338Z,0.00
2018-07-21T02:56:34.345Z,0.00
2018-07-21T02:57:34.413Z,0.00
2018-07-21T02:58:34.463Z,0.00
2018-07-21T02:59:34.471Z,0.00
2018-07-21T03:00:34.524Z,0.00
2018-07-21T03:01:34.605Z,0.00
2018-07-21T03:02:34.640Z,0.00
2018-07-21T03:03:34.668Z,0.00
2018-07-21T03:04:34.740Z,0.00
2018-07-21T03:05:34.799Z,0.00
2018-07-21T03:06:34.792Z,0.00
2018-07-21T03:07:34.884Z,0.00
2018-07-21T03:08:34.916Z,0.00
2018-07-21T03:09:34.976Z,0.00
2018-07-21T03:10:35.019Z,0.00
2018-07-21T03:11:35.034Z,0.00
2018-07-21T03:12:35.097Z,0.00
2018-07-21T03:13:35.136Z,0.00
2018-07-21T03:14:35.179Z,0.00
2018-07-21T03:15:35.237Z,0.00
2018-07-21T03:16:35.307Z,0.00
2018-07-21T03:17:35.339Z,0.00
2018-07-21T03:18:35.371Z,0.00
2018-07-21T03:19:35.443Z,0.00
2018-07-21T03:20:35.462Z,0.00
2018-07-21T03:21:35.513Z,0.00
2018-07-21T03:22:35.554Z,0.00
2018-07-21T03:23:35.798Z,0.00
2018-07-21T03:24:35.672Z,0.00
2018-07-21T03:25:35.703Z,0.00
2018-07-21T03:26:35.740Z,0.00
2018-07-21T03:27:35.788Z,0.00
2018-07-21T03:28:35.838Z,0.00
2018-07-21T03:29:35.888Z,0.00
2018-07-21T03:30:35.919Z,0.00
2018-07-21T03:31:35.963Z,0.00
2018-07-21T03:32:36.027Z,0.00
2018-07-21T03:33:36.041Z,0.00
2018-07-21T03:34:36.306Z,0.00
2018-07-21T03:35:36.154Z,0.00
2018-07-21T03:36:36.187Z,0.00
2018-07-21T03:37:36.254Z,0.00
2018-07-21T03:38:36.292Z,0.00
2018-07-21T03:39:36.322Z,0.00
2018-07-21T03:40:36.438Z,0.00
2018-07-21T03:41:36.419Z,0.00
2018-07-21T03:42:36.471Z,0.00
2018-07-21T03:43:36.492Z,0.00
2018-07-21T03:44:36.548Z,0.00
2018-07-21T03:45:36.616Z,0.00
2018-07-21T03:46:36.654Z,0.00
2018-07-21T03:47:36.708Z,0.00
2018-07-21T03:48:36.734Z,0.00
2018-07-21T03:49:36.802Z,0.00
2018-07-21T03:50:36.839Z,0.00
2018-07-21T03:51:36.873Z,0.00
2018-07-21T03:52:36.923Z,0.00
2018-07-21T03:53:36.951Z,0.00
2018-07-21T03:54:36.996Z,0.00
2018-07-21T03:55:37.043Z,0.00
2018-07-21T03:56:37.075Z,0.00
2018-07-21T03:57:37.344Z,0.00
2018-07-21T03:58:37.182Z,0.00
2018-07-21T03:59:37.217Z,0.00
2018-07-21T04:00:37.322Z,0.00
2018-07-21T04:01:37.330Z,0.00
2018-07-21T04:02:37.343Z,0.00
2018-07-21T04:03:37.411Z,0.00
2018-07-21T04:04:37.447Z,0.00
2018-07-21T04:05:37.507Z,0.00
2018-07-21T04:06:37.555Z,0.00
2018-07-21T04:07:37.590Z,0.00
2018-07-21T04:08:37.655Z,0.00
2018-07-21T04:09:37.711Z,0.00
2018-07-21T04:10:37.728Z,0.00
2018-07-21T04:11:37.780Z,0.00
2018-07-21T04:12:37.836Z,0.00
2018-07-21T04:13:37.851Z,0.00
2018-07-21T04:14:37.920Z,0.00
2018-07-21T04:15:37.973Z,0.00
2018-07-21T04:16:37.998Z,0.00
2018-07-21T04:17:38.029Z,0.00
2018-07-21T04:18:38.093Z,0.00
2018-07-21T04:19:38.341Z,0.00
2018-07-21T04:20:38.182Z,0.00
2018-07-21T04:21:38.242Z,0.00
2018-07-21T04:22:38.267Z,0.00
2018-07-21T04:23:38.335Z,0.00
2018-07-21T04:24:38.364Z,0.00
2018-07-21T04:25:38.401Z,0.00
2018-07-21T04:26:38.446Z,0.00
2018-07-21T04:27:38.497Z,0.00
2018-07-21T04:28:38.564Z,0.00
2018-07-21T04:29:38.588Z,0.00
2018-07-21T04:30:38.649Z,0.00
2018-07-21T04:31:38.692Z,0.00
2018-07-21T04:32:38.755Z,0.00
2018-07-21T04:33:38.774Z,0.00
2018-07-21T04:34:38.815Z,0.00
2018-07-21T04:35:38.871Z,0.00
2018-07-21T04:36:38.901Z,0.00
2018-07-21T04:37:38.939Z,0.00
2018-07-21T04:38:38.978Z,0.00
2018-07-21T04:39:39.056Z,0.00
2018-07-21T04:40:39.081Z,0.00
2018-07-21T04:41:39.128Z,0.00
2018-07-21T04:42:39.172Z,0.00
2018-07-21T04:43:39.223Z,0.00
2018-07-21T04:44:39.269Z,0.00
2018-07-21T04:45:39.290Z,0.00
2018-07-21T04:46:39.378Z,0.00
2018-07-21T04:47:39.404Z,0.00
2018-07-21T04:48:39.451Z,0.00
2018-07-21T04:49:39.506Z,0.00
2018-07-21T04:50:39.530Z,0.00
2018-07-21T04:51:39.568Z,0.00
2018-07-21T04:52:39.840Z,0.00
2018-07-21T04:53:39.692Z,0.00
2018-07-21T04:54:39.721Z,0.00
2018-07-21T04:55:39.754Z,0.00
2018-07-21T04:56:39.791Z,0.00
2018-07-21T04:57:39.858Z,0.00
2018-07-21T04:58:39.878Z,0.00
2018-07-21T04:59:39.932Z,0.00
2018-07-21T05:00:40.034Z,0.00
2018-07-21T05:01:40.050Z,0.00
2018-07-21T05:02:40.070Z,0.00
2018-07-21T05:03:40.144Z,0.00
2018-07-21T05:04:40.377Z,0.00
2018-07-21T05:05:40.236Z,0.00
2018-07-21T05:06:40.236Z,0.00
2018-07-21T05:07:40.306Z,0.00
2018-07-21T05:08:40.334Z,0.00
2018-07-21T05:09:40.402Z,0.00
2018-07-21T05:10:40.441Z,0.00
2018-07-21T05:11:40.485Z,0.00
2018-07-21T05:12:40.529Z,0.00
2018-07-21T05:13:40.571Z,0.00
2018-07-21T05:14:40.611Z,0.00
2018-07-21T05:15:40.656Z,0.00
2018-07-21T05:16:40.701Z,0.00
2018-07-21T05:17:40.754Z,0.00
2018-07-21T05:18:40.818Z,0.00
2018-07-21T05:19:40.827Z,0.00
2018-07-21T05:20:40.879Z,0.00
2018-07-21T05:21:40.907Z,0.00
2018-07-21T05:22:41.024Z,0.00
2018-07-21T05:23:41.029Z,0.00
2018-07-21T05:24:41.064Z,0.00
2018-07-21T05:25:41.124Z,0.00
2018-07-21T05:26:41.134Z,0.00
2018-07-21T05:27:41.206Z,0.00
2018-07-21T05:28:41.474Z,0.00
2018-07-21T05:29:41.304Z,0.00
2018-07-21T05:30:41.338Z,0.00
2018-07-21T05:31:41.399Z,0.00
2018-07-21T05:32:41.428Z,0.00
2018-07-21T05:33:41.460Z,0.00
2018-07-21T05:34:41.504Z,0.00
2018-07-21T05:35:41.553Z,0.00
2018-07-21T05:36:41.626Z,0.00
2018-07-21T05:37:41.650Z,0.00
2018-07-21T05:38:41.690Z,0.00
2018-07-21T05:39:41.995Z,0.00
2018-07-21T05:40:41.796Z,0.00
2018-07-21T05:41:41.822Z,0.00
2018-07-21T05:42:41.939Z,0.00
2018-07-21T05:43:41.925Z,0.00
2018-07-21T05:44:41.964Z,0.00
2018-07-21T05:45:42.005Z,0.00
2018-07-21T05:46:42.057Z,0.00
2018-07-21T05:47:42.125Z,0.00
2018-07-21T05:48:42.170Z,0.00
2018-07-21T05:49:42.191Z,0.00
2018-07-21T05:50:42.222Z,0.00
2018-07-21T05:51:42.521Z,0.00
2018-07-21T05:52:42.308Z,0.00
2018-07-21T05:53:42.369Z,0.00
2018-07-21T05:54:42.440Z,0.00
2018-07-21T05:55:42.464Z,0.00
2018-07-21T05:56:42.523Z,0.00
2018-07-21T05:57:42.564Z,0.00
2018-07-21T05:58:42.599Z,0.00
2018-07-21T05:59:42.644Z,0.00
2018-07-21T06:00:42.686Z,0.00
2018-07-21T06:01:42.726Z,0.00
2018-07-21T06:02:42.833Z,0.00
2018-07-21T06:03:43.074Z,0.00
2018-07-21T06:04:42.851Z,0.00
2018-07-21T06:05:42.900Z,0.00
2018-07-21T06:06:42.939Z,0.00
2018-07-21T06:07:43.007Z,0.00
2018-07-21T06:08:43.072Z,0.00
2018-07-21T06:09:43.057Z,0.00
2018-07-21T06:10:43.119Z,0.00
2018-07-21T06:11:43.190Z,0.00
2018-07-21T06:12:43.224Z,0.00
2018-07-21T06:13:43.249Z,0.00
2018-07-21T06:14:43.496Z,0.00
2018-07-21T06:15:43.333Z,0.00
2018-07-21T06:16:43.387Z,0.00
2018-07-21T06:17:43.440Z,0.00
2018-07-21T06:18:43.490Z,0.00
2018-07-21T06:19:43.538Z,0.00
2018-07-21T06:20:43.572Z,0.00
2018-07-21T06:21:43.650Z,0.00
2018-07-21T06:22:43.645Z,0.00
2018-07-21T06:23:43.734Z,0.00
2018-07-21T06:24:43.763Z,0.00
2018-07-21T06:25:43.990Z,0.00
2018-07-21T06:26:43.846Z,0.00
2018-07-21T06:27:43.866Z,0.00
2018-07-21T06:28:43.936Z,0.00
2018-07-21T06:29:43.950Z,0.00
2018-07-21T06:30:44.008Z,0.00
2018-07-21T06:31:44.059Z,0.00
2018-07-21T06:32:44.103Z,0.00
2018-07-21T06:33:44.147Z,0.00
2018-07-21T06:34:44.186Z,0.00
2018-07-21T06:35:44.229Z,0.00
2018-07-21T06:36:44.264Z,0.00
2018-07-21T06:37:44.533Z,0.00
2018-07-21T06:38:44.348Z,0.00
2018-07-21T06:39:44.386Z,0.00
2018-07-21T06:40:44.434Z,0.00
2018-07-21T06:41:44.475Z,0.00
2018-07-21T06:42:44.526Z,0.00
2018-07-21T06:43:44.618Z,0.00
2018-07-21T06:44:44.630Z,0.00
2018-07-21T06:45:44.662Z,0.00
2018-07-21T06:46:44.716Z,0.00
2018-07-21T06:47:44.747Z,0.00
2018-07-21T06:48:44.826Z,0.00
2018-07-21T06:49:44.858Z,0.00
2018-07-21T06:50:44.898Z,0.00
2018-07-21T06:51:44.953Z,0.00
2018-07-21T06:52:45.194Z,0.00
2018-07-21T06:53:45.040Z,0.00
2018-07-21T06:54:45.072Z,0.00
2018-07-21T06:55:45.126Z,0.00
2018-07-21T06:56:45.149Z,0.00
2018-07-21T06:57:45.212Z,0.00
2018-07-21T06:58:45.251Z,0.00
2018-07-21T06:59:45.295Z,0.00
2018-07-21T07:00:45.324Z,0.00
2018-07-21T07:01:45.391Z,0.00
2018-07-21T07:02:45.436Z,0.00
2018-07-21T07:03:45.479Z,0.00
2018-07-21T07:04:45.763Z,0.00
2018-07-21T07:05:45.579Z,0.00
2018-07-21T07:06:45.595Z,0.00
2018-07-21T07:07:45.653Z,0.00
2018-07-21T07:08:45.690Z,0.00
2018-07-21T07:09:45.755Z,0.00
2018-07-21T07:10:45.768Z,0.00
2018-07-21T07:11:45.840Z,0.00
2018-07-21T07:12:45.921Z,0.00
2018-07-21T07:13:45.902Z,0.00
2018-07-21T07:14:45.970Z,0.00
2018-07-21T07:15:45.984Z,0.00
2018-07-21T07:16:46.064Z,0.00
2018-07-21T07:17:46.097Z,0.00
2018-07-21T07:18:46.179Z,0.00
2018-07-21T07:19:46.227Z,0.00
2018-07-21T07:20:46.243Z,0.00
2018-07-21T07:21:46.263Z,0.00
2018-07-21T07:22:46.299Z,0.00
2018-07-21T07:23:46.397Z,0.00
2018-07-21T07:24:46.400Z,0.00
2018-07-21T07:25:46.448Z,0.00
2018-07-21T07:26:46.483Z,0.00
2018-07-21T07:27:46.520Z,0.00
2018-07-21T07:28:46.788Z,0.00
2018-07-21T07:29:46.617Z,0.00
2018-07-21T07:30:46.673Z,0.00
2018-07-21T07:31:46.692Z,0.00
2018-07-21T07:32:46.752Z,0.00
2018-07-21T07:33:46.793Z,0.00
2018-07-21T07:34:46.852Z,0.00
2018-07-21T07:35:46.876Z,0.00
2018-07-21T07:36:46.937Z,0.00
2018-07-21T07:37:46.970Z,0.00
2018-07-21T07:38:47.025Z,0.00
2018-07-21T07:39:47.235Z,0.00
2018-07-21T07:40:47.104Z,0.00
2018-07-21T07:41:47.146Z,0.00
2018-07-21T07:42:47.202Z,0.00
2018-07-21T07:43:47.272Z,0.00
2018-07-21T07:44:47.312Z,0.00
2018-07-21T07:45:47.326Z,0.00
2018-07-21T07:46:47.362Z,0.00
2018-07-21T07:47:47.399Z,0.00
2018-07-21T07:48:47.467Z,0.00
2018-07-21T07:49:47.489Z,0.00
2018-07-21T07:50:47.534Z,0.00
2018-07-21T07:51:47.789Z,0.00
2018-07-21T07:52:47.627Z,0.00
2018-07-21T07:53:47.674Z,0.00
2018-07-21T07:54:47.729Z,0.00
2018-07-21T07:55:47.765Z,0.00
2018-07-21T07:56:47.830Z,0.00
2018-07-21T07:57:47.843Z,0.00
2018-07-21T07:58:47.881Z,0.00
2018-07-21T07:59:47.937Z,0.00
2018-07-21T08:00:47.965Z,0.00
2018-07-21T08:01:48.033Z,0.00
2018-07-21T08:02:48.057Z,0.00
2018-07-21T08:03:48.342Z,0.00
2018-07-21T08:04:48.169Z,0.00
2018-07-21T08:05:48.215Z,0.00
2018-07-21T08:06:48.245Z,0.00
2018-07-21T08:07:48.316Z,0.00
2018-07-21T08:08:48.339Z,0.00
2018-07-21T08:09:48.397Z,0.00
2018-07-21T08:10:48.437Z,0.00
2018-07-21T08:11:48.519Z,0.00
2018-07-21T08:12:48.512Z,0.00
2018-07-21T08:13:48.547Z,0.00
2018-07-21T08:14:48.607Z,0.00
2018-07-21T08:15:48.638Z,0.00
2018-07-21T08:16:48.688Z,0.00
2018-07-21T08:17:48.731Z,0.00
2018-07-21T08:18:48.774Z,0.00
2018-07-21T08:19:49.047Z,0.00
2018-07-21T08:20:48.852Z,0.00
2018-07-21T08:21:48.914Z,0.00
2018-07-21T08:22:48.977Z,0.00
2018-07-21T08:23:48.978Z,0.00
2018-07-21T08:24:49.030Z,0.00
2018-07-21T08:25:49.068Z,0.00
2018-07-21T08:26:49.133Z,0.00
2018-07-21T08:27:49.177Z,0.00
2018-07-21T08:28:49.204Z,0.00
2018-07-21T08:29:49.264Z,0.00
2018-07-21T08:30:49.297Z,0.00
2018-07-21T08:31:49.314Z,0.00
2018-07-21T08:32:49.615Z,0.00
2018-07-21T08:33:49.446Z,0.00
2018-07-21T08:34:49.475Z,0.00
2018-07-21T08:35:49.524Z,0.00
2018-07-21T08:36:49.589Z,0.00
2018-07-21T08:37:49.596Z,0.00
2018-07-21T08:38:49.682Z,0.00
2018-07-21T08:39:49.713Z,0.00
2018-07-21T08:40:49.719Z,0.00
2018-07-21T08:41:49.774Z,0.00
2018-07-21T08:42:49.834Z,0.00
2018-07-21T08:43:49.869Z,0.00
2018-07-21T08:44:49.919Z,0.00
2018-07-21T08:45:49.969Z,0.00
2018-07-21T08:46:50.007Z,0.00
2018-07-21T08:47:50.272Z,0.00
2018-07-21T08:48:50.111Z,0.00
2018-07-21T08:49:50.126Z,0.00
2018-07-21T08:50:50.183Z,0.00
2018-07-21T08:51:50.225Z,0.00
2018-07-21T08:52:50.310Z,0.00
2018-07-21T08:53:50.322Z,0.00
2018-07-21T08:54:50.347Z,0.00
2018-07-21T08:55:50.493Z,0.00
2018-07-21T08:56:50.455Z,0.00
2018-07-21T08:57:50.499Z,0.00
2018-07-21T08:58:50.539Z,0.00
2018-07-21T08:59:50.816Z,0.00
2018-07-21T09:00:50.634Z,0.00
2018-07-21T09:01:50.659Z,0.00
2018-07-21T09:02:50.725Z,0.00
2018-07-21T09:03:50.754Z,0.00
2018-07-21T09:04:50.771Z,0.00
2018-07-21T09:05:50.903Z,0.00
2018-07-21T09:06:50.877Z,0.00
2018-07-21T09:07:50.919Z,0.00
2018-07-21T09:08:50.970Z,0.00
2018-07-21T09:09:50.976Z,0.00
2018-07-21T09:10:51.313Z,0.00
2018-07-21T09:11:51.105Z,0.00
2018-07-21T09:12:51.142Z,0.00
2018-07-21T09:13:51.165Z,0.00
2018-07-21T09:14:51.223Z,0.00
2018-07-21T09:15:51.269Z,0.00
2018-07-21T09:16:51.330Z,0.00
2018-07-21T09:17:51.360Z,0.00
2018-07-21T09:18:51.378Z,4.00
2018-07-21T09:19:51.449Z,0.00
2018-07-21T09:20:51.502Z,0.00
2018-07-21T09:21:51.522Z,4.00
2018-07-21T09:22:51.579Z,4.00
2018-07-21T09:23:51.663Z,4.00
2018-07-21T09:24:51.631Z,8.00
2018-07-21T09:25:51.721Z,4.00
2018-07-21T09:26:51.953Z,8.00
2018-07-21T09:27:51.800Z,12.00
2018-07-21T09:28:51.812Z,16.00
2018-07-21T09:29:51.890Z,20.00
2018-07-21T09:30:51.912Z,24.00
2018-07-21T09:31:51.954Z,36.00
2018-07-21T09:32:52.007Z,44.00
2018-07-21T09:33:52.103Z,56.00
2018-07-21T09:34:52.098Z,68.00
2018-07-21T09:35:52.125Z,88.00
2018-07-21T09:36:52.198Z,108.00
2018-07-21T09:37:52.204Z,136.00
2018-07-21T09:38:52.282Z,164.00
2018-07-21T09:39:52.314Z,196.00
2018-07-21T09:40:52.361Z,236.00
2018-07-21T09:41:52.402Z,268.00
2018-07-21T09:42:52.474Z,312.00
2018-07-21T09:43:52.462Z,340.00
2018-07-21T09:44:52.535Z,360.00
2018-07-21T09:45:52.555Z,380.00
2018-07-21T09:46:52.600Z,416.00
2018-07-21T09:47:52.661Z,464.00
2018-07-21T09:48:52.696Z,528.00
2018-07-21T09:49:52.943Z,600.00
2018-07-21T09:50:52.804Z,668.00
2018-07-21T09:51:52.821Z,752.00
2018-07-21T09:52:52.875Z,844.00
2018-07-21T09:53:52.917Z,928.00
2018-07-21T09:54:52.941Z,1020.00
2018-07-21T09:55:53.063Z,1108.00
2018-07-21T09:56:53.044Z,1184.00
2018-07-21T09:57:53.095Z,1268.00
2018-07-21T09:58:53.148Z,1356.00
2018-07-21T09:59:53.172Z,1428.00
2018-07-21T10:00:53.445Z,1472.00
2018-07-21T10:01:53.267Z,1532.00
2018-07-21T10:02:53.316Z,1608.00
2018-07-21T10:03:53.350Z,1700.00
2018-07-21T10:04:53.456Z,1848.00
2018-07-21T10:05:53.426Z,1968.00
2018-07-21T10:06:53.496Z,2040.00
2018-07-21T10:07:53.541Z,2176.00
2018-07-21T10:08:53.569Z,2328.00
2018-07-21T10:09:53.599Z,2436.00
2018-07-21T10:10:53.676Z,2604.00
2018-07-21T10:11:53.692Z,2808.00
2018-07-21T10:12:53.764Z,2992.00
2018-07-21T10:13:53.812Z,3204.00
2018-07-21T10:14:53.836Z,3368.00
2018-07-21T10:15:53.886Z,3464.00
2018-07-21T10:16:53.937Z,3580.00
2018-07-21T10:17:53.945Z,3716.00
2018-07-21T10:18:54.261Z,3952.00
2018-07-21T10:19:54.048Z,4296.00
2018-07-21T10:20:54.112Z,4584.00
2018-07-21T10:21:54.202Z,4720.00
2018-07-21T10:22:54.183Z,4764.00
2018-07-21T10:23:54.218Z,5008.00
2018-07-21T10:24:54.279Z,5096.00
2018-07-21T10:25:54.314Z,5148.00
2018-07-21T10:26:54.346Z,5208.00
2018-07-21T10:27:54.390Z,5284.00
2018-07-21T10:28:54.508Z,5328.00
2018-07-21T10:29:54.676Z,5424.00
2018-07-21T10:30:54.540Z,5616.00
2018-07-21T10:31:54.588Z,5808.00
2018-07-21T10:32:54.635Z,5944.00
2018-07-21T10:33:54.707Z,6464.00
2018-07-21T10:34:54.735Z,7032.00
2018-07-21T10:35:54.779Z,7316.00
2018-07-21T10:36:54.855Z,10892.00
2018-07-21T10:37:54.844Z,15328.00
2018-07-21T10:38:54.887Z,14720.00
2018-07-21T10:39:54.947Z,12912.00
2018-07-21T10:40:55.006Z,17376.00
2018-07-21T10:41:55.032Z,19712.00
2018-07-21T10:42:55.076Z,20192.00
2018-07-21T10:43:55.181Z,22016.00
2018-07-21T10:44:55.165Z,22528.00
2018-07-21T10:45:55.265Z,17568.00
2018-07-21T10:46:55.278Z,24288.00
2018-07-21T10:47:55.348Z,25824.00
2018-07-21T10:48:55.332Z,27680.00
2018-07-21T10:49:55.378Z,26272.00
2018-07-21T10:50:55.451Z,24704.00
2018-07-21T10:51:55.511Z,24928.00
2018-07-21T10:52:55.537Z,26176.00
2018-07-21T10:53:55.601Z,17920.00
2018-07-21T10:54:55.646Z,22400.00
2018-07-21T10:55:55.692Z,19936.00
2018-07-21T10:56:55.901Z,25376.00
2018-07-21T10:57:55.789Z,26272.00
2018-07-21T10:58:55.835Z,28064.00
2018-07-21T10:59:55.883Z,32960.00
2018-07-21T11:00:55.897Z,28576.00
2018-07-21T11:01:55.987Z,26752.00
2018-07-21T11:02:56.056Z,34432.00
2018-07-21T11:03:56.041Z,29568.00
2018-07-21T11:04:56.118Z,32064.00
2018-07-21T11:05:56.170Z,30848.00
2018-07-21T11:06:56.188Z,28896.00
2018-07-21T11:07:56.248Z,28992.00
2018-07-21T11:08:56.290Z,33696.00
2018-07-21T11:09:56.357Z,34240.00
2018-07-21T11:10:56.387Z,32064.00
2018-07-21T11:11:56.471Z,32192.00
2018-07-21T11:12:56.530Z,32352.00
2018-07-21T11:13:56.596Z,30368.00
2018-07-21T11:14:56.581Z,30784.00
2018-07-21T11:15:56.665Z,30208.00
2018-07-21T11:16:56.692Z,30528.00
2018-07-21T11:17:56.743Z,30944.00
2018-07-21T11:18:56.800Z,38336.00
2018-07-21T11:19:56.849Z,36864.00
2018-07-21T11:20:56.916Z,44640.00
2018-07-21T11:21:56.974Z,44256.00
2018-07-21T11:22:56.979Z,41504.00
2018-07-21T11:23:57.044Z,37792.00
2018-07-21T11:24:57.089Z,34688.00
2018-07-21T11:25:57.148Z,34944.00
2018-07-21T11:26:57.186Z,33664.00
2018-07-21T11:27:57.217Z,32768.00
2018-07-21T11:28:57.301Z,32128.00
2018-07-21T11:29:57.383Z,29600.00
2018-07-21T11:30:57.377Z,26656.00
2018-07-21T11:31:57.462Z,26816.00
2018-07-21T11:32:57.535Z,24768.00
2018-07-21T11:33:57.573Z,24544.00
2018-07-21T11:34:57.624Z,23520.00
2018-07-21T11:35:57.938Z,27104.00
2018-07-21T11:36:57.696Z,31456.00
2018-07-21T11:37:57.762Z,29568.00
2018-07-21T11:38:57.809Z,32640.00
2018-07-21T11:39:57.850Z,32384.00
2018-07-21T11:40:57.907Z,30752.00
2018-07-21T11:41:57.985Z,36832.00
2018-07-21T11:42:57.997Z,45600.00
2018-07-21T11:43:58.049Z,43488.00
2018-07-21T11:44:58.116Z,44544.00
2018-07-21T11:45:58.188Z,47488.00
2018-07-21T11:46:58.466Z,48512.00
2018-07-21T11:47:58.232Z,49312.00
2018-07-21T11:48:58.311Z,51712.00
2018-07-21T11:49:58.368Z,51712.00
2018-07-21T11:50:58.430Z,46016.00
2018-07-21T11:51:58.472Z,51616.00
2018-07-21T11:52:58.495Z,51872.00
2018-07-21T11:53:58.579Z,50272.00
2018-07-21T11:54:58.631Z,52544.00
2018-07-21T11:55:58.653Z,50080.00
2018-07-21T11:56:58.766Z,50912.00
2018-07-21T11:57:58.797Z,53024.00
2018-07-21T11:58:58.853Z,55456.00
2018-07-21T11:59:58.909Z,57056.00
2018-07-21T12:00:58.944Z,54848.00
2018-07-21T12:01:59.064Z,57088.00
2018-07-21T12:02:59.043Z,54496.00
2018-07-21T12:03:59.074Z,54944.00
2018-07-21T12:04:59.121Z,56288.00
2018-07-21T12:05:59.197Z,56352.00
2018-07-21T12:06:59.292Z,52384.00
2018-07-21T12:07:59.282Z,54656.00
2018-07-21T12:08:59.367Z,53504.00
2018-07-21T12:09:59.411Z,56160.00
2018-07-21T12:10:59.450Z,54496.00
2018-07-21T12:11:59.501Z,59520.00
2018-07-21T12:12:59.580Z,60000.00
2018-07-21T12:13:59.610Z,63648.00
2018-07-21T12:14:59.672Z,63328.00
2018-07-21T12:15:59.722Z,61952.00
2018-07-21T12:16:59.780Z,62432.00
2018-07-21T12:17:59.801Z,62816.00
2018-07-21T12:18:59.901Z,61152.00
2018-07-21T12:19:59.913Z,63808.00
2018-07-21T12:20:59.981Z,58304.00
2018-07-21T12:22:00.038Z,59392.00
2018-07-21T12:23:00.109Z,42432.00
2018-07-21T12:24:00.153Z,52768.00
2018-07-21T12:25:00.190Z,52960.00
2018-07-21T12:26:00.277Z,46944.00
2018-07-21T12:27:00.310Z,57632.00
2018-07-21T12:28:00.391Z,59360.00
2018-07-21T12:29:00.409Z,63264.00
2018-07-21T12:30:00.463Z,62688.00
2018-07-21T12:31:00.536Z,63168.00
2018-07-21T12:32:00.587Z,63872.00
2018-07-21T12:33:00.631Z,62976.00
2018-07-21T12:34:00.689Z,63968.00
2018-07-21T12:35:00.748Z,63744.00
2018-07-21T12:36:00.809Z,60576.00
2018-07-21T12:37:00.879Z,63424.00
2018-07-21T12:38:00.973Z,63168.00
2018-07-21T12:39:00.977Z,65952.00
2018-07-21T12:40:01.058Z,66080.00
2018-07-21T12:41:01.090Z,66048.00
2018-07-21T12:42:01.154Z,67904.00
2018-07-21T12:43:01.211Z,63488.00
2018-07-21T12:44:01.259Z,65632.00
2018-07-21T12:45:01.308Z,67232.00
2018-07-21T12:46:01.375Z,65280.00
2018-07-21T12:47:01.415Z,63712.00
2018-07-21T12:48:01.476Z,69440.00
2018-07-21T12:49:01.771Z,68544.00
2018-07-21T12:50:01.593Z,66240.00
2018-07-21T12:51:01.651Z,66272.00
2018-07-21T12:52:01.708Z,67648.00
2018-07-21T12:53:01.785Z,67232.00
2018-07-21T12:54:01.855Z,68192.00
2018-07-21T12:55:01.847Z,70560.00